sensor_id;sensor_type;location;lat;lon;timestamp;temperature;humidity
42743;DHT22;28397;44.552;-0.848;2023-04-03T00:01:32;12.00;99.90
42743;DHT22;28397;44.552;-0.848;2023-04-03T00:03:58;11.90;99.90
42743;DHT22;28397;44.552;-0.848;2023-04-03T00:06:24;11.90;99.90
42743;DHT22;28397;44.552;-0.848;2023-04-03T00:08:50;12.00;99.90
42743;DHT22;28397;44.552;-0.848;2023-04-03T00:11:16;11.90;99.90
42743;DHT22;28397;44.552;-0.848;2023-04-03T00:13:42;11.90;99.90
42743;DHT22;28397;44.552;-0.848;2023-04-03T00:16:09;11.90;99.90
42743;DHT22;28397;44.552;-0.848;2023-04-03T00:18:36;11.90;99.90
42743;DHT22;28397;44.552;-0.848;2023-04-03T00:21:02;12.00;99.90
42743;DHT22;28397;44.552;-0.848;2023-04-03T00:23:28;12.00;99.90
42743;DHT22;28397;44.552;-0.848;2023-04-03T00:25:53;12.00;99.90
42743;DHT22;28397;44.552;-0.848;2023-04-03T00:28:19;12.00;99.90
42743;DHT22;28397;44.552;-0.848;2023-04-03T00:30:45;12.00;99.90
42743;DHT22;28397;44.552;-0.848;2023-04-03T00:33:12;12.00;99.90
42743;DHT22;28397;44.552;-0.848;2023-04-03T00:35:38;12.00;99.90
42743;DHT22;28397;44.552;-0.848;2023-04-03T00:38:04;11.90;99.90
42743;DHT22;28397;44.552;-0.848;2023-04-03T00:40:35;11.90;99.90
42743;DHT22;28397;44.552;-0.848;2023-04-03T00:43:04;12.00;99.90
42743;DHT22;28397;44.552;-0.848;2023-04-03T00:45:37;12.00;99.90
42743;DHT22;28397;44.552;-0.848;2023-04-03T00:48:05;11.90;99.90
42743;DHT22;28397;44.552;-0.848;2023-04-03T00:50:35;11.90;99.90
42743;DHT22;28397;44.552;-0.848;2023-04-03T00:53:04;11.90;99.90
42743;DHT22;28397;44.552;-0.848;2023-04-03T00:55:31;11.90;99.90
42743;DHT22;28397;44.552;-0.848;2023-04-03T00:57:57;11.80;99.90
42743;DHT22;28397;44.552;-0.848;2023-04-03T01:00:23;11.90;99.90
42743;DHT22;28397;44.552;-0.848;2023-04-03T01:02:51;11.80;99.90
42743;DHT22;28397;44.552;-0.848;2023-04-03T01:05:17;11.90;99.90
42743;DHT22;28397;44.552;-0.848;2023-04-03T01:07:45;11.80;99.90
42743;DHT22;28397;44.552;-0.848;2023-04-03T01:10:13;11.80;99.90
42743;DHT22;28397;44.552;-0.848;2023-04-03T01:12:42;11.80;99.90
42743;DHT22;28397;44.552;-0.848;2023-04-03T01:15:12;11.80;99.90
42743;DHT22;28397;44.552;-0.848;2023-04-03T01:17:42;11.80;99.90
42743;DHT22;28397;44.552;-0.848;2023-04-03T01:25:43;11.70;99.90
42743;DHT22;28397;44.552;-0.848;2023-04-03T01:28:14;11.70;99.90
42743;DHT22;28397;44.552;-0.848;2023-04-03T01:30:49;11.70;99.90
42743;DHT22;28397;44.552;-0.848;2023-04-03T01:33:15;11.70;99.90
42743;DHT22;28397;44.552;-0.848;2023-04-03T01:35:41;11.70;99.90
42743;DHT22;28397;44.552;-0.848;2023-04-03T01:38:06;11.60;99.90
42743;DHT22;28397;44.552;-0.848;2023-04-03T01:40:32;11.60;99.90
42743;DHT22;28397;44.552;-0.848;2023-04-03T01:42:58;11.60;99.90
42743;DHT22;28397;44.552;-0.848;2023-04-03T01:45:24;11.60;99.90
42743;DHT22;28397;44.552;-0.848;2023-04-03T01:47:49;11.60;99.90
42743;DHT22;28397;44.552;-0.848;2023-04-03T01:50:15;11.60;99.90
42743;DHT22;28397;44.552;-0.848;2023-04-03T01:52:41;11.60;99.90
42743;DHT22;28397;44.552;-0.848;2023-04-03T01:55:07;11.60;99.90
42743;DHT22;28397;44.552;-0.848;2023-04-03T01:57:33;11.50;99.90
42743;DHT22;28397;44.552;-0.848;2023-04-03T01:59:58;11.50;99.90
42743;DHT22;28397;44.552;-0.848;2023-04-03T02:02:24;11.50;99.90
42743;DHT22;28397;44.552;-0.848;2023-04-03T02:04:50;11.50;99.90
42743;DHT22;28397;44.552;-0.848;2023-04-03T02:07:15;11.60;99.90
42743;DHT22;28397;44.552;-0.848;2023-04-03T02:09:41;11.50;99.90
42743;DHT22;28397;44.552;-0.848;2023-04-03T02:12:07;11.50;99.90
42743;DHT22;28397;44.552;-0.848;2023-04-03T02:14:32;11.40;99.90
42743;DHT22;28397;44.552;-0.848;2023-04-03T02:17:00;11.50;99.90
42743;DHT22;28397;44.552;-0.848;2023-04-03T02:19:26;11.40;99.90
42743;DHT22;28397;44.552;-0.848;2023-04-03T02:21:51;11.40;99.90
42743;DHT22;28397;44.552;-0.848;2023-04-03T02:24:17;11.40;99.90
42743;DHT22;28397;44.552;-0.848;2023-04-03T02:26:43;11.40;99.90
42743;DHT22;28397;44.552;-0.848;2023-04-03T02:29:08;11.40;99.90
42743;DHT22;28397;44.552;-0.848;2023-04-03T02:31:34;11.40;99.90
42743;DHT22;28397;44.552;-0.848;2023-04-03T02:34:00;11.40;99.90
42743;DHT22;28397;44.552;-0.848;2023-04-03T02:36:26;11.40;99.90
42743;DHT22;28397;44.552;-0.848;2023-04-03T02:38:52;11.40;99.90
42743;DHT22;28397;44.552;-0.848;2023-04-03T02:41:17;11.30;99.90
42743;DHT22;28397;44.552;-0.848;2023-04-03T02:43:43;11.30;99.90
42743;DHT22;28397;44.552;-0.848;2023-04-03T02:46:09;11.30;99.90
42743;DHT22;28397;44.552;-0.848;2023-04-03T02:48:35;11.30;99.90
42743;DHT22;28397;44.552;-0.848;2023-04-03T02:51:00;11.30;99.90
42743;DHT22;28397;44.552;-0.848;2023-04-03T02:53:26;11.30;99.90
42743;DHT22;28397;44.552;-0.848;2023-04-03T02:55:52;11.30;99.90
42743;DHT22;28397;44.552;-0.848;2023-04-03T02:58:18;11.20;99.90
42743;DHT22;28397;44.552;-0.848;2023-04-03T03:00:43;11.20;99.90
42743;DHT22;28397;44.552;-0.848;2023-04-03T03:03:09;11.20;99.90
42743;DHT22;28397;44.552;-0.848;2023-04-03T03:05:35;11.20;99.90
42743;DHT22;28397;44.552;-0.848;2023-04-03T03:08:01;11.20;99.90
42743;DHT22;28397;44.552;-0.848;2023-04-03T03:10:27;11.20;99.90
42743;DHT22;28397;44.552;-0.848;2023-04-03T03:12:53;11.20;99.90
42743;DHT22;28397;44.552;-0.848;2023-04-03T03:15:18;11.10;99.90
42743;DHT22;28397;44.552;-0.848;2023-04-03T03:17:45;11.10;99.90
42743;DHT22;28397;44.552;-0.848;2023-04-03T03:20:11;11.10;99.90
42743;DHT22;28397;44.552;-0.848;2023-04-03T03:22:39;11.10;99.90
42743;DHT22;28397;44.552;-0.848;2023-04-03T03:25:05;11.10;99.90
42743;DHT22;28397;44.552;-0.848;2023-04-03T03:27:31;11.10;99.90
42743;DHT22;28397;44.552;-0.848;2023-04-03T03:29:57;11.10;99.90
42743;DHT22;28397;44.552;-0.848;2023-04-03T03:32:22;11.10;99.90
42743;DHT22;28397;44.552;-0.848;2023-04-03T03:34:48;11.10;99.90
42743;DHT22;28397;44.552;-0.848;2023-04-03T03:37:13;11.00;99.90
42743;DHT22;28397;44.552;-0.848;2023-04-03T03:39:39;11.00;99.90
42743;DHT22;28397;44.552;-0.848;2023-04-03T03:42:05;10.90;99.90
42743;DHT22;28397;44.552;-0.848;2023-04-03T03:44:31;11.00;99.90
42743;DHT22;28397;44.552;-0.848;2023-04-03T03:46:56;11.00;99.90
42743;DHT22;28397;44.552;-0.848;2023-04-03T03:49:22;11.00;99.90
42743;DHT22;28397;44.552;-0.848;2023-04-03T03:51:48;11.00;99.90
42743;DHT22;28397;44.552;-0.848;2023-04-03T03:54:14;11.00;99.90
42743;DHT22;28397;44.552;-0.848;2023-04-03T03:56:39;10.90;99.90
42743;DHT22;28397;44.552;-0.848;2023-04-03T03:59:05;10.90;99.90
42743;DHT22;28397;44.552;-0.848;2023-04-03T04:01:31;10.90;99.90
42743;DHT22;28397;44.552;-0.848;2023-04-03T04:03:57;10.90;99.90
42743;DHT22;28397;44.552;-0.848;2023-04-03T04:06:23;10.90;99.90
42743;DHT22;28397;44.552;-0.848;2023-04-03T04:08:48;10.90;99.90
42743;DHT22;28397;44.552;-0.848;2023-04-03T04:11:14;10.90;99.90
42743;DHT22;28397;44.552;-0.848;2023-04-03T04:13:40;10.90;99.90
42743;DHT22;28397;44.552;-0.848;2023-04-03T04:16:06;10.90;99.90
42743;DHT22;28397;44.552;-0.848;2023-04-03T04:18:32;10.90;99.90
42743;DHT22;28397;44.552;-0.848;2023-04-03T04:20:58;10.90;99.90
42743;DHT22;28397;44.552;-0.848;2023-04-03T04:23:24;10.90;99.90
42743;DHT22;28397;44.552;-0.848;2023-04-03T04:25:50;10.80;99.90
42743;DHT22;28397;44.552;-0.848;2023-04-03T04:28:16;10.90;99.90
42743;DHT22;28397;44.552;-0.848;2023-04-03T04:30:42;10.90;99.90
42743;DHT22;28397;44.552;-0.848;2023-04-03T04:33:08;10.80;99.90
42743;DHT22;28397;44.552;-0.848;2023-04-03T04:35:33;10.80;99.90
42743;DHT22;28397;44.552;-0.848;2023-04-03T04:37:59;10.80;99.90
42743;DHT22;28397;44.552;-0.848;2023-04-03T04:40:26;10.80;99.90
42743;DHT22;28397;44.552;-0.848;2023-04-03T04:42:52;10.70;99.90
42743;DHT22;28397;44.552;-0.848;2023-04-03T04:45:17;10.70;99.90
42743;DHT22;28397;44.552;-0.848;2023-04-03T04:47:43;10.70;99.90
42743;DHT22;28397;44.552;-0.848;2023-04-03T04:50:09;10.70;99.90
42743;DHT22;28397;44.552;-0.848;2023-04-03T04:52:35;10.70;99.90
42743;DHT22;28397;44.552;-0.848;2023-04-03T04:55:01;10.70;99.90
42743;DHT22;28397;44.552;-0.848;2023-04-03T04:57:27;10.80;99.90
42743;DHT22;28397;44.552;-0.848;2023-04-03T04:59:53;10.70;99.90
42743;DHT22;28397;44.552;-0.848;2023-04-03T05:02:18;10.70;99.90
42743;DHT22;28397;44.552;-0.848;2023-04-03T05:04:44;10.60;99.90
42743;DHT22;28397;44.552;-0.848;2023-04-03T05:07:10;10.70;99.90
42743;DHT22;28397;44.552;-0.848;2023-04-03T05:09:35;10.60;99.90
42743;DHT22;28397;44.552;-0.848;2023-04-03T05:12:01;10.60;99.90
42743;DHT22;28397;44.552;-0.848;2023-04-03T05:14:28;10.60;99.90
42743;DHT22;28397;44.552;-0.848;2023-04-03T05:16:54;10.60;99.90
42743;DHT22;28397;44.552;-0.848;2023-04-03T05:19:20;10.60;99.90
42743;DHT22;28397;44.552;-0.848;2023-04-03T05:21:47;10.60;99.90
42743;DHT22;28397;44.552;-0.848;2023-04-03T05:24:15;10.50;99.90
42743;DHT22;28397;44.552;-0.848;2023-04-03T05:26:42;10.50;99.90
42743;DHT22;28397;44.552;-0.848;2023-04-03T05:29:08;10.50;99.90
42743;DHT22;28397;44.552;-0.848;2023-04-03T05:31:34;10.50;99.90
42743;DHT22;28397;44.552;-0.848;2023-04-03T05:33:59;10.40;99.90
42743;DHT22;28397;44.552;-0.848;2023-04-03T05:36:25;10.40;99.90
42743;DHT22;28397;44.552;-0.848;2023-04-03T05:38:52;10.40;99.90
42743;DHT22;28397;44.552;-0.848;2023-04-03T05:41:17;10.40;99.90
42743;DHT22;28397;44.552;-0.848;2023-04-03T05:43:43;10.40;99.90
42743;DHT22;28397;44.552;-0.848;2023-04-03T05:46:14;10.30;99.90
42743;DHT22;28397;44.552;-0.848;2023-04-03T05:48:41;10.40;99.90
42743;DHT22;28397;44.552;-0.848;2023-04-03T05:51:09;10.40;99.90
42743;DHT22;28397;44.552;-0.848;2023-04-03T05:53:38;10.40;99.90
42743;DHT22;28397;44.552;-0.848;2023-04-03T05:56:04;10.30;99.90
42743;DHT22;28397;44.552;-0.848;2023-04-03T05:58:30;10.30;99.90
42743;DHT22;28397;44.552;-0.848;2023-04-03T06:00:56;10.30;99.90
42743;DHT22;28397;44.552;-0.848;2023-04-03T06:03:23;10.30;99.90
42743;DHT22;28397;44.552;-0.848;2023-04-03T06:05:48;10.30;99.90
42743;DHT22;28397;44.552;-0.848;2023-04-03T06:08:14;10.20;99.90
42743;DHT22;28397;44.552;-0.848;2023-04-03T06:10:40;10.30;99.90
42743;DHT22;28397;44.552;-0.848;2023-04-03T06:13:06;10.20;99.90
42743;DHT22;28397;44.552;-0.848;2023-04-03T06:15:32;10.20;99.90
42743;DHT22;28397;44.552;-0.848;2023-04-03T06:17:59;10.30;99.90
42743;DHT22;28397;44.552;-0.848;2023-04-03T06:20:25;10.30;99.90
42743;DHT22;28397;44.552;-0.848;2023-04-03T06:22:51;10.30;99.90
42743;DHT22;28397;44.552;-0.848;2023-04-03T06:25:17;10.30;99.90
42743;DHT22;28397;44.552;-0.848;2023-04-03T06:27:44;10.30;99.90
42743;DHT22;28397;44.552;-0.848;2023-04-03T06:30:11;10.30;99.90
42743;DHT22;28397;44.552;-0.848;2023-04-03T06:32:37;10.30;99.90
42743;DHT22;28397;44.552;-0.848;2023-04-03T06:35:04;10.30;99.90
42743;DHT22;28397;44.552;-0.848;2023-04-03T06:37:30;10.30;99.90
42743;DHT22;28397;44.552;-0.848;2023-04-03T06:39:56;10.30;99.90
42743;DHT22;28397;44.552;-0.848;2023-04-03T06:42:23;10.30;99.90
42743;DHT22;28397;44.552;-0.848;2023-04-03T06:44:48;10.30;99.90
42743;DHT22;28397;44.552;-0.848;2023-04-03T06:47:15;10.30;99.90
42743;DHT22;28397;44.552;-0.848;2023-04-03T06:49:42;10.30;99.90
42743;DHT22;28397;44.552;-0.848;2023-04-03T06:52:08;10.20;99.90
42743;DHT22;28397;44.552;-0.848;2023-04-03T06:54:35;10.20;99.90
42743;DHT22;28397;44.552;-0.848;2023-04-03T06:57:01;10.20;99.90
42743;DHT22;28397;44.552;-0.848;2023-04-03T06:59:27;10.30;99.90
42743;DHT22;28397;44.552;-0.848;2023-04-03T07:01:53;10.30;99.90
42743;DHT22;28397;44.552;-0.848;2023-04-03T07:04:19;10.20;99.90
42743;DHT22;28397;44.552;-0.848;2023-04-03T07:06:48;10.30;99.90
42743;DHT22;28397;44.552;-0.848;2023-04-03T07:09:14;10.30;99.90
42743;DHT22;28397;44.552;-0.848;2023-04-03T07:11:40;10.30;99.90
42743;DHT22;28397;44.552;-0.848;2023-04-03T07:14:06;10.30;99.90
42743;DHT22;28397;44.552;-0.848;2023-04-03T07:16:34;10.40;99.90
42743;DHT22;28397;44.552;-0.848;2023-04-03T07:19:00;10.40;99.90
42743;DHT22;28397;44.552;-0.848;2023-04-03T07:21:27;10.40;99.90
42743;DHT22;28397;44.552;-0.848;2023-04-03T07:23:53;10.40;99.90
42743;DHT22;28397;44.552;-0.848;2023-04-03T07:26:19;10.30;99.90
42743;DHT22;28397;44.552;-0.848;2023-04-03T07:28:46;10.50;99.90
42743;DHT22;28397;44.552;-0.848;2023-04-03T07:31:15;10.40;99.90
42743;DHT22;28397;44.552;-0.848;2023-04-03T07:33:41;10.40;99.90
42743;DHT22;28397;44.552;-0.848;2023-04-03T07:36:08;10.50;99.90
42743;DHT22;28397;44.552;-0.848;2023-04-03T07:38:35;10.70;99.90
42743;DHT22;28397;44.552;-0.848;2023-04-03T07:41:02;10.70;99.90
42743;DHT22;28397;44.552;-0.848;2023-04-03T07:43:28;10.70;99.90
42743;DHT22;28397;44.552;-0.848;2023-04-03T07:45:54;10.80;99.90
42743;DHT22;28397;44.552;-0.848;2023-04-03T07:48:22;10.80;99.90
42743;DHT22;28397;44.552;-0.848;2023-04-03T07:50:48;10.80;99.90
42743;DHT22;28397;44.552;-0.848;2023-04-03T07:53:14;10.80;99.90
42743;DHT22;28397;44.552;-0.848;2023-04-03T07:55:40;10.70;99.90
42743;DHT22;28397;44.552;-0.848;2023-04-03T07:58:13;10.70;99.90
42743;DHT22;28397;44.552;-0.848;2023-04-03T08:00:40;10.70;99.90
42743;DHT22;28397;44.552;-0.848;2023-04-03T08:03:07;10.80;99.90
42743;DHT22;28397;44.552;-0.848;2023-04-03T08:05:37;10.80;99.90
42743;DHT22;28397;44.552;-0.848;2023-04-03T08:08:04;10.90;99.90
42743;DHT22;28397;44.552;-0.848;2023-04-03T08:10:31;11.10;99.90
42743;DHT22;28397;44.552;-0.848;2023-04-03T08:12:56;11.00;99.90
42743;DHT22;28397;44.552;-0.848;2023-04-03T08:15:22;10.90;99.90
42743;DHT22;28397;44.552;-0.848;2023-04-03T08:17:48;10.80;99.90
42743;DHT22;28397;44.552;-0.848;2023-04-03T08:20:14;11.00;99.90
42743;DHT22;28397;44.552;-0.848;2023-04-03T08:22:40;11.00;99.90
42743;DHT22;28397;44.552;-0.848;2023-04-03T08:25:06;11.20;99.90
42743;DHT22;28397;44.552;-0.848;2023-04-03T08:27:32;11.20;99.90
42743;DHT22;28397;44.552;-0.848;2023-04-03T08:29:57;11.20;99.90
42743;DHT22;28397;44.552;-0.848;2023-04-03T08:32:23;11.40;99.90
42743;DHT22;28397;44.552;-0.848;2023-04-03T08:34:49;11.30;99.90
42743;DHT22;28397;44.552;-0.848;2023-04-03T08:37:15;11.40;99.90
42743;DHT22;28397;44.552;-0.848;2023-04-03T08:39:42;11.50;99.90
42743;DHT22;28397;44.552;-0.848;2023-04-03T08:42:16;11.60;99.90
42743;DHT22;28397;44.552;-0.848;2023-04-03T08:44:59;11.50;99.90
42743;DHT22;28397;44.552;-0.848;2023-04-03T08:50:28;11.80;99.90
42743;DHT22;28397;44.552;-0.848;2023-04-03T08:52:56;11.80;99.90
42743;DHT22;28397;44.552;-0.848;2023-04-03T08:55:29;11.70;99.90
42743;DHT22;28397;44.552;-0.848;2023-04-03T08:58:01;11.90;99.90
42743;DHT22;28397;44.552;-0.848;2023-04-03T09:00:30;11.90;99.90
42743;DHT22;28397;44.552;-0.848;2023-04-03T09:02:58;11.90;99.90
42743;DHT22;28397;44.552;-0.848;2023-04-03T09:05:39;12.00;99.90
42743;DHT22;28397;44.552;-0.848;2023-04-03T09:08:27;11.90;99.90
42743;DHT22;28397;44.552;-0.848;2023-04-03T09:19:07;12.00;99.90
42743;DHT22;28397;44.552;-0.848;2023-04-03T09:21:38;12.20;99.90
42743;DHT22;28397;44.552;-0.848;2023-04-03T09:24:10;12.00;99.90
42743;DHT22;28397;44.552;-0.848;2023-04-03T09:27:10;12.20;99.90
42743;DHT22;28397;44.552;-0.848;2023-04-03T09:29:40;12.20;99.90
42743;DHT22;28397;44.552;-0.848;2023-04-03T09:32:28;12.40;99.90
42743;DHT22;28397;44.552;-0.848;2023-04-03T09:34:57;12.40;99.90
42743;DHT22;28397;44.552;-0.848;2023-04-03T09:40:03;12.60;99.90
42743;DHT22;28397;44.552;-0.848;2023-04-03T09:42:30;12.60;99.90
42743;DHT22;28397;44.552;-0.848;2023-04-03T09:44:59;12.50;99.90
42743;DHT22;28397;44.552;-0.848;2023-04-03T09:47:27;12.50;99.90
42743;DHT22;28397;44.552;-0.848;2023-04-03T09:52:35;12.50;99.90
42743;DHT22;28397;44.552;-0.848;2023-04-03T09:55:24;12.60;99.90
42743;DHT22;28397;44.552;-0.848;2023-04-03T09:58:05;12.70;99.90
42743;DHT22;28397;44.552;-0.848;2023-04-03T10:00:54;13.00;99.90
42743;DHT22;28397;44.552;-0.848;2023-04-03T10:03:39;13.00;99.90
42743;DHT22;28397;44.552;-0.848;2023-04-03T10:06:23;13.10;99.90
42743;DHT22;28397;44.552;-0.848;2023-04-03T10:09:15;13.00;99.90
42743;DHT22;28397;44.552;-0.848;2023-04-03T10:12:07;13.10;99.90
42743;DHT22;28397;44.552;-0.848;2023-04-03T10:14:36;13.20;99.90
42743;DHT22;28397;44.552;-0.848;2023-04-03T10:25:45;13.60;99.90
42743;DHT22;28397;44.552;-0.848;2023-04-03T10:28:20;13.50;99.90
42743;DHT22;28397;44.552;-0.848;2023-04-03T10:36:49;13.80;99.90
42743;DHT22;28397;44.552;-0.848;2023-04-03T10:47:46;13.40;99.90
42743;DHT22;28397;44.552;-0.848;2023-04-03T10:50:37;13.50;99.90
42743;DHT22;28397;44.552;-0.848;2023-04-03T10:56:20;13.40;99.90
42743;DHT22;28397;44.552;-0.848;2023-04-03T11:01:35;13.40;99.90
42743;DHT22;28397;44.552;-0.848;2023-04-03T11:04:06;13.30;99.90
42743;DHT22;28397;44.552;-0.848;2023-04-03T11:06:42;13.30;99.90
42743;DHT22;28397;44.552;-0.848;2023-04-03T11:09:31;13.50;99.90
42743;DHT22;28397;44.552;-0.848;2023-04-03T11:12:06;13.30;99.90
42743;DHT22;28397;44.552;-0.848;2023-04-03T11:14:37;13.50;99.90
42743;DHT22;28397;44.552;-0.848;2023-04-03T11:20:10;14.10;99.90
42743;DHT22;28397;44.552;-0.848;2023-04-03T11:22:38;14.10;99.90
42743;DHT22;28397;44.552;-0.848;2023-04-03T11:25:20;14.20;99.90
42743;DHT22;28397;44.552;-0.848;2023-04-03T11:27:54;14.30;99.90
42743;DHT22;28397;44.552;-0.848;2023-04-03T11:30:49;14.50;99.90
42743;DHT22;28397;44.552;-0.848;2023-04-03T11:36:24;14.30;99.90
42743;DHT22;28397;44.552;-0.848;2023-04-03T11:39:38;14.30;99.90
42743;DHT22;28397;44.552;-0.848;2023-04-03T11:41:39;14.50;99.90
42743;DHT22;28397;44.552;-0.848;2023-04-03T11:44:25;14.60;99.90
42743;DHT22;28397;44.552;-0.848;2023-04-03T11:46:57;14.70;99.90
42743;DHT22;28397;44.552;-0.848;2023-04-03T12:08:25;14.90;99.90
42743;DHT22;28397;44.552;-0.848;2023-04-03T12:16:26;15.10;99.90
42743;DHT22;28397;44.552;-0.848;2023-04-03T12:35:35;15.70;99.90
42743;DHT22;28397;44.552;-0.848;2023-04-03T12:46:44;15.80;99.90
42743;DHT22;28397;44.552;-0.848;2023-04-03T12:51:55;15.70;99.90
42743;DHT22;28397;44.552;-0.848;2023-04-03T12:54:37;15.60;99.90
42743;DHT22;28397;44.552;-0.848;2023-04-03T12:57:18;15.80;99.90
42743;DHT22;28397;44.552;-0.848;2023-04-03T12:59:45;15.90;99.90
42743;DHT22;28397;44.552;-0.848;2023-04-03T13:02:31;16.00;99.90
42743;DHT22;28397;44.552;-0.848;2023-04-03T13:05:04;16.20;99.90
42743;DHT22;28397;44.552;-0.848;2023-04-03T13:07:32;16.00;99.90
42743;DHT22;28397;44.552;-0.848;2023-04-03T13:12:34;15.80;99.90
42743;DHT22;28397;44.552;-0.848;2023-04-03T13:15:15;15.50;99.90
42743;DHT22;28397;44.552;-0.848;2023-04-03T13:17:42;15.00;99.90
42743;DHT22;28397;44.552;-0.848;2023-04-03T13:20:21;15.20;99.90
42743;DHT22;28397;44.552;-0.848;2023-04-03T13:23:05;15.20;99.90
42743;DHT22;28397;44.552;-0.848;2023-04-03T13:25:35;15.80;99.90
42743;DHT22;28397;44.552;-0.848;2023-04-03T13:28:03;16.20;99.90
42743;DHT22;28397;44.552;-0.848;2023-04-03T13:30:35;16.40;99.90
42743;DHT22;28397;44.552;-0.848;2023-04-03T13:33:05;16.50;99.90
42743;DHT22;28397;44.552;-0.848;2023-04-03T13:35:43;16.70;99.90
42743;DHT22;28397;44.552;-0.848;2023-04-03T13:40:54;16.60;99.90
42743;DHT22;28397;44.552;-0.848;2023-04-03T13:43:25;16.80;99.90
42743;DHT22;28397;44.552;-0.848;2023-04-03T13:48:43;17.40;99.90
42743;DHT22;28397;44.552;-0.848;2023-04-03T13:53:50;17.00;99.90
42743;DHT22;28397;44.552;-0.848;2023-04-03T13:56:35;16.80;99.90
42743;DHT22;28397;44.552;-0.848;2023-04-03T14:04:26;16.20;99.90
42743;DHT22;28397;44.552;-0.848;2023-04-03T14:06:53;15.90;99.90
42743;DHT22;28397;44.552;-0.848;2023-04-03T14:09:20;16.00;99.90
42743;DHT22;28397;44.552;-0.848;2023-04-03T14:11:47;15.80;99.90
42743;DHT22;28397;44.552;-0.848;2023-04-03T14:14:20;15.90;99.90
42743;DHT22;28397;44.552;-0.848;2023-04-03T14:16:50;16.50;99.90
42743;DHT22;28397;44.552;-0.848;2023-04-03T14:19:20;16.80;99.90
42743;DHT22;28397;44.552;-0.848;2023-04-03T14:21:47;17.30;99.90
42743;DHT22;28397;44.552;-0.848;2023-04-03T14:24:13;17.40;99.90
42743;DHT22;28397;44.552;-0.848;2023-04-03T14:26:38;17.50;99.90
42743;DHT22;28397;44.552;-0.848;2023-04-03T14:29:04;17.60;99.90
42743;DHT22;28397;44.552;-0.848;2023-04-03T14:31:30;17.30;99.90
42743;DHT22;28397;44.552;-0.848;2023-04-03T14:33:56;17.10;99.90
42743;DHT22;28397;44.552;-0.848;2023-04-03T14:36:24;17.00;99.90
42743;DHT22;28397;44.552;-0.848;2023-04-03T14:38:54;17.00;99.90
42743;DHT22;28397;44.552;-0.848;2023-04-03T14:41:23;16.70;99.90
42743;DHT22;28397;44.552;-0.848;2023-04-03T14:43:50;16.50;99.90
42743;DHT22;28397;44.552;-0.848;2023-04-03T14:46:19;16.30;99.90
42743;DHT22;28397;44.552;-0.848;2023-04-03T14:48:47;16.10;99.90
42743;DHT22;28397;44.552;-0.848;2023-04-03T14:51:14;15.90;99.90
42743;DHT22;28397;44.552;-0.848;2023-04-03T14:53:41;15.80;99.90
42743;DHT22;28397;44.552;-0.848;2023-04-03T14:56:27;15.70;99.90
42743;DHT22;28397;44.552;-0.848;2023-04-03T14:58:58;16.40;99.90
42743;DHT22;28397;44.552;-0.848;2023-04-03T15:01:25;16.60;99.90
42743;DHT22;28397;44.552;-0.848;2023-04-03T15:03:51;16.60;99.90
42743;DHT22;28397;44.552;-0.848;2023-04-03T15:06:16;16.80;99.90
42743;DHT22;28397;44.552;-0.848;2023-04-03T15:08:43;16.80;99.90
42743;DHT22;28397;44.552;-0.848;2023-04-03T15:11:10;17.10;99.90
42743;DHT22;28397;44.552;-0.848;2023-04-03T15:13:36;16.90;99.90
42743;DHT22;28397;44.552;-0.848;2023-04-03T15:16:02;17.10;99.90
42743;DHT22;28397;44.552;-0.848;2023-04-03T15:18:32;17.10;99.90
42743;DHT22;28397;44.552;-0.848;2023-04-03T15:20:59;17.00;99.90
42743;DHT22;28397;44.552;-0.848;2023-04-03T15:23:24;16.70;99.90
42743;DHT22;28397;44.552;-0.848;2023-04-03T15:25:52;16.50;99.90
42743;DHT22;28397;44.552;-0.848;2023-04-03T15:30:46;17.20;99.90
42743;DHT22;28397;44.552;-0.848;2023-04-03T15:33:13;17.40;99.90
42743;DHT22;28397;44.552;-0.848;2023-04-03T15:35:41;17.20;99.90
42743;DHT22;28397;44.552;-0.848;2023-04-03T15:38:06;17.60;99.90
42743;DHT22;28397;44.552;-0.848;2023-04-03T15:40:32;17.40;99.90
42743;DHT22;28397;44.552;-0.848;2023-04-03T15:42:58;17.40;99.90
42743;DHT22;28397;44.552;-0.848;2023-04-03T15:45:23;18.00;99.90
42743;DHT22;28397;44.552;-0.848;2023-04-03T15:47:50;17.90;99.90
42743;DHT22;28397;44.552;-0.848;2023-04-03T15:50:16;17.10;99.90
42743;DHT22;28397;44.552;-0.848;2023-04-03T15:52:41;16.60;99.90
42743;DHT22;28397;44.552;-0.848;2023-04-03T15:55:07;16.30;99.90
42743;DHT22;28397;44.552;-0.848;2023-04-03T15:57:33;16.20;99.90
42743;DHT22;28397;44.552;-0.848;2023-04-03T15:59:58;16.90;99.90
42743;DHT22;28397;44.552;-0.848;2023-04-03T16:02:24;17.00;99.90
42743;DHT22;28397;44.552;-0.848;2023-04-03T16:04:54;17.10;99.90
42743;DHT22;28397;44.552;-0.848;2023-04-03T16:07:20;17.20;99.90
42743;DHT22;28397;44.552;-0.848;2023-04-03T16:09:45;17.40;99.90
42743;DHT22;28397;44.552;-0.848;2023-04-03T16:12:11;17.80;99.90
42743;DHT22;28397;44.552;-0.848;2023-04-03T16:14:37;17.70;99.90
42743;DHT22;28397;44.552;-0.848;2023-04-03T16:17:03;16.90;99.90
42743;DHT22;28397;44.552;-0.848;2023-04-03T16:19:29;16.60;99.90
42743;DHT22;28397;44.552;-0.848;2023-04-03T16:21:55;16.30;99.90
42743;DHT22;28397;44.552;-0.848;2023-04-03T16:24:21;16.20;99.90
42743;DHT22;28397;44.552;-0.848;2023-04-03T16:26:47;16.10;99.90
42743;DHT22;28397;44.552;-0.848;2023-04-03T16:29:13;16.10;99.90
42743;DHT22;28397;44.552;-0.848;2023-04-03T16:31:39;16.00;99.90
42743;DHT22;28397;44.552;-0.848;2023-04-03T16:34:05;17.10;99.90
42743;DHT22;28397;44.552;-0.848;2023-04-03T16:36:30;19.40;99.90
42743;DHT22;28397;44.552;-0.848;2023-04-03T16:38:56;18.00;99.90
42743;DHT22;28397;44.552;-0.848;2023-04-03T16:41:22;17.00;99.90
42743;DHT22;28397;44.552;-0.848;2023-04-03T16:43:47;16.60;99.90
42743;DHT22;28397;44.552;-0.848;2023-04-03T16:46:13;17.90;99.90
42743;DHT22;28397;44.552;-0.848;2023-04-03T16:48:39;20.30;99.90
42743;DHT22;28397;44.552;-0.848;2023-04-03T16:51:05;20.20;99.90
42743;DHT22;28397;44.552;-0.848;2023-04-03T16:53:30;21.00;99.90
42743;DHT22;28397;44.552;-0.848;2023-04-03T16:55:58;20.90;99.90
42743;DHT22;28397;44.552;-0.848;2023-04-03T16:58:23;19.20;99.90
42743;DHT22;28397;44.552;-0.848;2023-04-03T17:00:50;17.90;99.90
42743;DHT22;28397;44.552;-0.848;2023-04-03T17:03:15;17.30;99.90
42743;DHT22;28397;44.552;-0.848;2023-04-03T17:05:41;17.10;99.90
42743;DHT22;28397;44.552;-0.848;2023-04-03T17:08:08;16.90;99.90
42743;DHT22;28397;44.552;-0.848;2023-04-03T17:10:36;17.30;99.90
42743;DHT22;28397;44.552;-0.848;2023-04-03T17:13:01;17.80;99.90
42743;DHT22;28397;44.552;-0.848;2023-04-03T17:15:27;18.20;99.90
42743;DHT22;28397;44.552;-0.848;2023-04-03T17:17:53;18.50;99.90
42743;DHT22;28397;44.552;-0.848;2023-04-03T17:20:19;18.70;99.90
42743;DHT22;28397;44.552;-0.848;2023-04-03T17:22:45;18.30;99.90
42743;DHT22;28397;44.552;-0.848;2023-04-03T17:25:11;17.50;99.90
42743;DHT22;28397;44.552;-0.848;2023-04-03T17:27:37;17.00;99.90
42743;DHT22;28397;44.552;-0.848;2023-04-03T17:30:04;16.80;99.90